Time;durP1;ratioP1;P1;durP2;ratioP2;P2;SDS_P1;SDS_P2;PMS_P1;PMS_P2;Temp;Humidity;BMP_temperature;BMP_pressure;BME280_temperature;BME280_humidity;BME280_pressure;Samples;Min_cycle;Max_cycle;Signal;HPM_P1;HPM_P2
2024/02/14 00:00:14;;;;;;;8.40;4.00;;;10.50;99.90;;;;;;7284935;19;20199;-81
2024/02/14 00:02:43;;;;;;;7.37;3.97;;;10.40;99.90;;;;;;7285750;19;20275;-81
2024/02/14 00:05:10;;;;;;;9.30;3.60;;;10.40;99.90;;;;;;7285778;19;20199;-81
2024/02/14 00:07:40;;;;;;;10.53;4.30;;;10.50;99.90;;;;;;7286122;19;20962;-82
2024/02/14 00:10:06;;;;;;;10.17;4.27;;;10.50;99.90;;;;;;7285997;19;20669;-81
2024/02/14 00:12:35;;;;;;;7.50;3.83;;;10.60;99.90;;;;;;7286242;19;20309;-81
2024/02/14 00:15:03;;;;;;;7.93;4.17;;;10.50;99.90;;;;;;7286893;19;20238;-81
2024/02/14 00:17:29;;;;;;;9.90;4.50;;;10.50;99.90;;;;;;7309008;19;20196;-81
2024/02/14 00:19:56;;;;;;;9.90;4.40;;;10.60;99.90;;;;;;7309572;19;20193;-81
2024/02/14 00:22:21;;;;;;;9.23;4.10;;;10.50;99.90;;;;;;7311987;19;20213;-81
2024/02/14 00:24:47;;;;;;;12.20;4.13;;;10.60;99.90;;;;;;7302872;19;20180;-81
2024/02/14 00:27:14;;;;;;;10.13;4.40;;;10.60;99.90;;;;;;7292044;19;20196;-81
2024/02/14 00:29:40;;;;;;;12.73;4.57;;;10.70;99.90;;;;;;7308064;19;20679;-81
2024/02/14 00:32:06;;;;;;;10.77;3.83;;;10.60;99.90;;;;;;7281851;19;20188;-81
2024/02/14 00:34:32;;;;;;;9.60;3.90;;;10.60;99.90;;;;;;7286536;19;20196;-81
2024/02/14 00:36:58;;;;;;;10.83;4.13;;;10.70;99.90;;;;;;7285737;19;20210;-82
2024/02/14 00:39:24;;;;;;;10.50;4.07;;;10.80;99.90;;;;;;7285982;19;20183;-81
2024/02/14 00:41:52;;;;;;;10.80;4.27;;;10.80;99.90;;;;;;7287406;19;20214;-80
2024/02/14 00:44:19;;;;;;;8.80;3.97;;;10.80;99.90;;;;;;7284345;19;20277;-80
2024/02/14 00:46:45;;;;;;;9.50;4.43;;;10.90;99.90;;;;;;7284066;19;20278;-80
2024/02/14 00:49:11;;;;;;;8.37;3.63;;;10.90;99.90;;;;;;7307341;19;20591;-81
2024/02/14 00:51:40;;;;;;;8.50;3.83;;;10.90;99.90;;;;;;7284640;19;20194;-80
2024/02/14 00:54:06;;;;;;;10.90;3.70;;;10.90;99.90;;;;;;7285527;19;20319;-80
2024/02/14 00:56:32;;;;;;;7.80;4.10;;;10.80;99.90;;;;;;7286830;19;20998;-80
2024/02/14 00:58:58;;;;;;;10.33;3.60;;;10.80;99.90;;;;;;7297536;19;20207;-80
2024/02/14 01:01:23;;;;;;;8.80;4.17;;;10.80;99.90;;;;;;7295858;19;20199;-81
2024/02/14 01:03:49;;;;;;;8.23;4.40;;;10.70;99.90;;;;;;7294026;19;20212;-81
2024/02/14 01:06:15;;;;;;;8.30;4.30;;;10.60;99.90;;;;;;7292853;19;20643;-80
2024/02/14 01:08:41;;;;;;;12.47;4.30;;;10.60;99.90;;;;;;7312258;19;20222;-82
2024/02/14 01:11:08;;;;;;;11.40;4.40;;;10.60;99.90;;;;;;7293738;19;20195;-81
2024/02/14 01:13:34;;;;;;;11.13;4.07;;;10.60;99.90;;;;;;7287919;19;20684;-82
2024/02/14 01:15:59;;;;;;;9.67;4.13;;;10.60;99.90;;;;;;7287853;19;20197;-81
2024/02/14 01:18:25;;;;;;;8.43;4.43;;;10.70;99.90;;;;;;7286198;19;20193;-81
2024/02/14 01:20:51;;;;;;;11.80;4.60;;;10.70;99.90;;;;;;7282013;19;20193;-80
2024/02/14 01:23:17;;;;;;;9.73;4.67;;;10.80;99.90;;;;;;7283870;19;20628;-81
2024/02/14 01:25:43;;;;;;;9.63;4.43;;;10.70;99.90;;;;;;7294995;19;20562;-81
2024/02/14 01:28:09;;;;;;;12.50;5.00;;;10.60;99.90;;;;;;7308004;19;20665;-82
2024/02/14 01:30:35;;;;;;;12.37;5.40;;;10.60;99.90;;;;;;7284549;19;20199;-81
2024/02/14 01:33:03;;;;;;;13.07;4.77;;;10.60;99.90;;;;;;7283306;19;20203;-81
2024/02/14 01:35:30;;;;;;;12.00;5.20;;;10.60;99.90;;;;;;7284384;19;20205;-82
2024/02/14 01:37:56;;;;;;;17.03;6.00;;;10.60;99.90;;;;;;7285960;19;20216;-81
2024/02/14 01:40:21;;;;;;;14.67;6.07;;;10.60;99.90;;;;;;7282758;19;20711;-81
2024/02/14 01:42:47;;;;;;;14.40;6.43;;;10.70;99.90;;;;;;7285996;19;20628;-80
2024/02/14 01:45:13;;;;;;;14.13;5.70;;;10.70;99.90;;;;;;7294019;19;20193;-81
2024/02/14 01:47:41;;;;;;;14.30;6.23;;;10.80;99.90;;;;;;7306138;19;20189;-81
2024/02/14 01:50:11;;;;;;;13.13;6.10;;;10.70;99.90;;;;;;7282831;19;20666;-81
2024/02/14 01:52:40;;;;;;;15.90;6.13;;;10.70;99.90;;;;;;7283671;19;20659;-81
2024/02/14 01:55:07;;;;;;;13.57;6.23;;;10.80;99.90;;;;;;7283604;19;20192;-80
2024/02/14 01:57:34;;;;;;;14.53;6.27;;;10.80;99.90;;;;;;7283574;19;20182;-80
2024/02/14 02:00:08;;;;;;;17.33;6.03;;;10.90;99.90;;;;;;7282027;19;20597;-80
2024/02/14 02:02:39;;;;;;;15.03;6.40;;;10.90;99.90;;;;;;7284827;19;20267;-81
2024/02/14 02:05:09;;;;;;;16.33;6.40;;;11.00;99.90;;;;;;7282790;19;20740;-81
2024/02/14 02:07:35;;;;;;;15.63;6.67;;;11.00;99.90;;;;;;7284347;19;20266;-81
2024/02/14 02:10:00;;;;;;;13.33;6.20;;;11.00;99.90;;;;;;7282227;19;20199;-80
2024/02/14 02:12:27;;;;;;;15.40;6.00;;;10.90;99.90;;;;;;7281853;19;20654;-80
2024/02/14 02:14:53;;;;;;;14.50;6.40;;;10.80;99.90;;;;;;7281774;19;20201;-80
2024/02/14 02:17:19;;;;;;;15.10;6.40;;;10.80;99.90;;;;;;7282814;19;20221;-80
2024/02/14 02:19:45;;;;;;;14.40;6.27;;;10.80;99.90;;;;;;7281440;19;20698;-80
2024/02/14 02:22:10;;;;;;;16.60;7.43;;;10.70;99.90;;;;;;7311065;19;20698;-82
2024/02/14 02:24:36;;;;;;;16.80;7.13;;;10.70;99.90;;;;;;7287840;19;20192;-82
2024/02/14 02:27:03;;;;;;;16.13;6.90;;;10.70;99.90;;;;;;7288292;19;20213;-79
2024/02/14 02:29:29;;;;;;;17.53;7.60;;;10.70;99.90;;;;;;7291357;19;20203;-82
2024/02/14 02:31:54;;;;;;;19.53;8.00;;;10.80;99.90;;;;;;7288848;19;20189;-82
2024/02/14 02:34:20;;;;;;;20.23;8.17;;;10.80;99.90;;;;;;7289479;19;20272;-79
2024/02/14 02:36:46;;;;;;;19.97;7.83;;;10.90;99.90;;;;;;7288444;19;20667;-79
2024/02/14 02:39:13;;;;;;;17.33;7.57;;;11.00;99.90;;;;;;7310517;19;20180;-81
2024/02/14 02:41:39;;;;;;;20.03;7.93;;;11.00;99.90;;;;;;7288655;19;20191;-81
2024/02/14 02:44:06;;;;;;;20.30;7.90;;;11.00;99.90;;;;;;7289737;19;20195;-81
2024/02/14 02:46:32;;;;;;;21.43;8.87;;;11.00;99.90;;;;;;7287437;19;20382;-80
2024/02/14 02:48:58;;;;;;;15.97;7.27;;;11.10;99.90;;;;;;7289618;19;20277;-81
2024/02/14 02:51:24;;;;;;;17.83;7.43;;;11.10;99.90;;;;;;7288185;19;20726;-81
2024/02/14 02:53:51;;;;;;;15.23;7.40;;;11.20;99.90;;;;;;7288979;19;20193;-80
2024/02/14 02:56:18;;;;;;;18.00;7.43;;;11.20;99.90;;;;;;7288566;19;20713;-80
2024/02/14 02:58:44;;;;;;;17.30;7.33;;;11.20;99.90;;;;;;7287978;19;20530;-80
2024/02/14 03:01:11;;;;;;;19.50;7.60;;;11.20;99.90;;;;;;7310854;19;20195;-80
2024/02/14 03:03:38;;;;;;;17.83;7.60;;;11.10;99.90;;;;;;7289786;19;20655;-80
2024/02/14 03:06:05;;;;;;;16.90;7.33;;;11.10;99.90;;;;;;7288090;19;20193;-81
2024/02/14 03:08:30;;;;;;;19.73;7.67;;;11.10;99.90;;;;;;7289366;19;20181;-81
2024/02/14 03:11:00;;;;;;;16.73;7.37;;;11.10;99.90;;;;;;7288309;19;20214;-81
2024/02/14 03:13:26;;;;;;;18.57;7.80;;;11.10;99.90;;;;;;7289142;19;20193;-81
2024/02/14 03:15:52;;;;;;;17.17;7.67;;;11.20;99.90;;;;;;7290339;19;20726;-83
2024/02/14 03:18:18;;;;;;;18.67;7.77;;;11.20;99.90;;;;;;7290629;19;20542;-81
2024/02/14 03:20:44;;;;;;;18.83;8.07;;;11.30;99.90;;;;;;7300954;19;20189;-80
2024/02/14 03:23:10;;;;;;;17.87;7.37;;;11.20;99.90;;;;;;7324268;19;20680;-81
2024/02/14 03:25:38;;;;;;;17.70;8.00;;;11.20;99.90;;;;;;7300622;19;20192;-81
2024/02/14 03:28:08;;;;;;;15.00;7.17;;;11.20;99.90;;;;;;7296599;19;20197;-81
2024/02/14 03:30:34;;;;;;;16.37;7.33;;;11.20;99.90;;;;;;7292448;19;20180;-80
2024/02/14 03:33:01;;;;;;;18.27;7.20;;;11.20;99.90;;;;;;7285377;19;20204;-81
2024/02/14 03:35:27;;;;;;;19.60;7.90;;;11.20;99.90;;;;;;7286754;19;20200;-80
2024/02/14 03:37:53;;;;;;;19.63;7.60;;;11.20;99.90;;;;;;7285711;19;20551;-80
2024/02/14 03:40:21;;;;;;;18.67;8.23;;;11.30;99.90;;;;;;7286218;19;20189;-80
2024/02/14 03:42:47;;;;;;;18.87;7.43;;;11.40;99.90;;;;;;7287365;19;20249;-81
2024/02/14 03:45:13;;;;;;;18.53;7.87;;;11.20;99.90;;;;;;7295100;19;20234;-80
2024/02/14 03:47:39;;;;;;;22.03;8.87;;;11.00;99.90;;;;;;7307989;19;20676;-81
2024/02/14 03:50:06;;;;;;;20.53;9.07;;;11.00;99.90;;;;;;7287277;19;20181;-81
2024/02/14 03:52:33;;;;;;;21.17;9.13;;;11.00;99.90;;;;;;7286575;19;20209;-81
2024/02/14 03:55:02;;;;;;;20.07;9.53;;;11.00;99.90;;;;;;7285817;19;20193;-80
2024/02/14 03:57:28;;;;;;;25.07;9.37;;;11.00;99.90;;;;;;7285332;19;20281;-81
2024/02/14 03:59:55;;;;;;;21.10;9.53;;;11.00;99.90;;;;;;7285299;19;20264;-81
2024/02/14 04:02:23;;;;;;;21.57;10.47;;;11.00;99.90;;;;;;7286929;19;20191;-80
2024/02/14 04:04:49;;;;;;;21.20;9.93;;;11.00;99.90;;;;;;7286102;19;20185;-81
2024/02/14 04:07:14;;;;;;;25.33;11.60;;;11.00;99.90;;;;;;7288912;19;20196;-80
2024/02/14 04:09:40;;;;;;;23.23;11.13;;;11.10;99.90;;;;;;7308518;19;20220;-81
2024/02/14 04:12:06;;;;;;;22.60;11.43;;;11.20;99.90;;;;;;7286565;19;20189;-81
2024/02/14 04:14:32;;;;;;;23.77;11.47;;;11.10;99.90;;;;;;7286490;19;20182;-81
2024/02/14 04:16:58;;;;;;;24.43;12.67;;;11.20;99.90;;;;;;7287445;19;20523;-81
2024/02/14 04:19:23;;;;;;;24.67;11.30;;;11.20;99.90;;;;;;7285484;19;20340;-81
2024/02/14 04:21:49;;;;;;;20.93;11.43;;;11.20;99.90;;;;;;7286426;19;20193;-81
2024/02/14 04:24:15;;;;;;;21.97;10.80;;;11.20;99.90;;;;;;7285803;19;20190;-80
2024/02/14 04:26:41;;;;;;;21.60;10.73;;;11.20;99.90;;;;;;7305499;19;20205;-80
2024/02/14 04:29:08;;;;;;;19.57;10.70;;;11.20;99.90;;;;;;7286924;19;20540;-81
2024/02/14 04:31:34;;;;;;;20.37;11.07;;;11.10;99.90;;;;;;7286818;19;20182;-81
2024/02/14 04:34:00;;;;;;;22.47;11.00;;;11.10;99.90;;;;;;7286644;19;20256;-81
2024/02/14 04:36:26;;;;;;;23.93;11.30;;;11.10;99.90;;;;;;7287784;19;20184;-81
2024/02/14 04:38:53;;;;;;;21.43;10.77;;;11.20;99.90;;;;;;7283885;19;20181;-81
2024/02/14 04:41:19;;;;;;;25.90;11.10;;;11.10;99.90;;;;;;7286932;19;20193;-80
2024/02/14 04:43:45;;;;;;;25.63;11.20;;;11.10;99.90;;;;;;7283740;19;20184;-80
2024/02/14 04:46:11;;;;;;;24.37;11.53;;;11.20;99.90;;;;;;7306817;19;20206;-81
2024/02/14 04:48:39;;;;;;;26.63;12.23;;;11.20;99.90;;;;;;7286268;19;20191;-81
2024/02/14 04:51:05;;;;;;;26.30;12.17;;;11.30;99.90;;;;;;7285403;19;20216;-80
2024/02/14 04:53:34;;;;;;;25.03;11.57;;;11.30;99.90;;;;;;7284161;19;20196;-80
2024/02/14 04:55:59;;;;;;;25.50;12.20;;;11.30;99.90;;;;;;7284962;19;20271;-81
2024/02/14 04:58:26;;;;;;;27.03;12.10;;;11.30;99.90;;;;;;7283243;19;20221;-81
2024/02/14 05:00:52;;;;;;;24.93;12.50;;;11.40;99.90;;;;;;7285757;19;20551;-81
2024/02/14 05:03:18;;;;;;;23.27;11.43;;;11.40;99.90;;;;;;7284967;19;20628;-81
2024/02/14 05:05:44;;;;;;;23.80;11.30;;;11.40;99.90;;;;;;7290805;19;20191;-80
2024/02/14 05:08:10;;;;;;;27.73;11.80;;;11.30;99.90;;;;;;7304908;19;20196;-81
2024/02/14 05:10:36;;;;;;;30.30;12.20;;;11.30;99.90;;;;;;7284070;19;20196;-80
2024/02/14 05:13:02;;;;;;;26.43;11.50;;;11.30;99.90;;;;;;7282510;19;20195;-80
2024/02/14 05:15:27;;;;;;;24.70;11.73;;;11.30;99.90;;;;;;7288143;19;20893;-81
2024/02/14 05:17:54;;;;;;;24.20;11.67;;;11.30;99.90;;;;;;7293239;19;20199;-80
2024/02/14 05:20:19;;;;;;;24.57;11.47;;;11.40;99.90;;;;;;7291446;19;20177;-80
2024/02/14 05:22:45;;;;;;;25.70;11.97;;;11.40;99.90;;;;;;7291063;19;20188;-80
2024/02/14 05:25:11;;;;;;;27.00;11.87;;;11.40;99.90;;;;;;7306759;19;20193;-80
2024/02/14 05:27:37;;;;;;;25.90;11.73;;;11.50;99.90;;;;;;7284499;19;20293;-81
2024/02/14 05:30:05;;;;;;;26.20;11.50;;;11.50;99.90;;;;;;7285283;19;20278;-80
2024/02/14 05:32:34;;;;;;;25.67;11.60;;;11.60;99.90;;;;;;7282100;19;20181;-80
2024/02/14 05:35:00;;;;;;;25.23;11.33;;;11.60;99.90;;;;;;7285309;19;20206;-80
2024/02/14 05:37:27;;;;;;;26.77;11.07;;;11.50;99.90;;;;;;7284014;19;20283;-81
2024/02/14 05:39:54;;;;;;;21.77;10.47;;;11.50;99.90;;;;;;7282160;19;20206;-81
2024/02/14 05:42:20;;;;;;;23.93;11.67;;;11.60;99.90;;;;;;7282302;19;20196;-80
2024/02/14 05:44:45;;;;;;;24.97;11.07;;;11.60;99.90;;;;;;7283153;19;20217;-80
2024/02/14 05:47:11;;;;;;;23.07;11.17;;;11.70;99.90;;;;;;7304507;19;20193;-81
2024/02/14 05:49:41;;;;;;;24.47;11.33;;;11.70;99.90;;;;;;7283266;19;20289;-81
2024/02/14 05:52:08;;;;;;;23.60;10.97;;;11.70;99.90;;;;;;7282781;19;20210;-81
2024/02/14 05:54:34;;;;;;;21.03;11.17;;;11.90;99.90;;;;;;7283176;19;20661;-81
2024/02/14 05:57:01;;;;;;;22.47;10.77;;;11.90;99.90;;;;;;7289603;19;20222;-81
2024/02/14 05:59:27;;;;;;;24.80;11.37;;;11.80;99.90;;;;;;7289571;19;20200;-81
2024/02/14 06:01:53;;;;;;;20.27;10.30;;;11.90;99.90;;;;;;7291679;19;20207;-80
2024/02/14 06:04:19;;;;;;;24.87;10.23;;;11.90;99.90;;;;;;7290789;19;20988;-80
2024/02/14 06:06:45;;;;;;;19.33;9.97;;;11.80;99.90;;;;;;7290874;19;20253;-80
2024/02/14 06:09:11;;;;;;;20.77;10.27;;;11.90;99.90;;;;;;7312950;19;20189;-81
2024/02/14 06:11:40;;;;;;;20.77;10.47;;;11.90;99.90;;;;;;7289093;19;20186;-80
2024/02/14 06:14:07;;;;;;;20.43;10.50;;;11.90;99.90;;;;;;7287799;19;20204;-81
2024/02/14 06:16:33;;;;;;;20.00;10.07;;;11.90;99.90;;;;;;7291760;19;20185;-82
2024/02/14 06:18:59;;;;;;;20.87;10.20;;;12.00;99.90;;;;;;7287635;19;20184;-81
2024/02/14 06:21:26;;;;;;;19.60;9.53;;;12.00;99.90;;;;;;7293408;19;20225;-81
2024/02/14 06:23:52;;;;;;;22.53;9.83;;;12.00;99.90;;;;;;7299462;19;20184;-82
2024/02/14 06:26:18;;;;;;;19.73;9.53;;;12.00;99.90;;;;;;7296026;19;20595;-81
2024/02/14 06:28:44;;;;;;;22.23;9.90;;;11.90;99.90;;;;;;7314383;19;20217;-80
2024/02/14 06:31:10;;;;;;;23.77;10.20;;;12.00;99.90;;;;;;7322013;19;20216;-80
2024/02/14 06:33:36;;;;;;;26.33;11.17;;;12.00;99.90;;;;;;7297180;19;20290;-79
2024/02/14 06:36:02;;;;;;;22.90;10.20;;;12.10;99.90;;;;;;7297548;19;20552;-79
2024/02/14 06:38:28;;;;;;;20.53;9.63;;;12.10;99.90;;;;;;7293665;19;20189;-79
2024/02/14 06:40:54;;;;;;;26.30;10.07;;;12.10;99.90;;;;;;7291207;19;20195;-79
2024/02/14 06:43:19;;;;;;;23.70;10.20;;;12.00;99.90;;;;;;7289793;19;20623;-79
2024/02/14 06:45:46;;;;;;;19.77;9.50;;;12.00;99.90;;;;;;7288885;19;20181;-79
2024/02/14 06:48:11;;;;;;;23.53;10.57;;;12.00;99.90;;;;;;7311743;19;20221;-79
2024/02/14 06:50:38;;;;;;;21.33;10.53;;;12.00;99.90;;;;;;7288757;19;20519;-81
2024/02/14 06:53:04;;;;;;;21.97;10.30;;;12.00;99.90;;;;;;7289825;19;20864;-81
2024/02/14 06:55:31;;;;;;;22.40;10.20;;;12.10;99.90;;;;;;7285968;19;20189;-81
2024/02/14 06:58:01;;;;;;;23.50;10.33;;;12.10;99.90;;;;;;7286313;19;20185;-80
2024/02/14 07:00:28;;;;;;;30.33;11.10;;;12.00;99.90;;;;;;7288704;19;20200;-81
2024/02/14 07:02:54;;;;;;;24.63;10.57;;;12.10;99.90;;;;;;7288936;19;20181;-81
2024/02/14 07:05:19;;;;;;;23.23;10.37;;;12.00;99.90;;;;;;7286740;19;20191;-82
2024/02/14 07:07:45;;;;;;;22.60;10.00;;;12.00;99.90;;;;;;7286831;19;20289;-81
2024/02/14 07:10:11;;;;;;;23.17;10.33;;;12.00;99.90;;;;;;7310927;19;20184;-81
2024/02/14 07:12:37;;;;;;;20.67;10.30;;;12.10;99.90;;;;;;7287913;19;20201;-81
2024/02/14 07:15:04;;;;;;;25.07;10.93;;;12.10;99.90;;;;;;7287698;19;20193;-82
2024/02/14 07:17:30;;;;;;;28.30;11.10;;;12.20;99.90;;;;;;7287444;19;20196;-80
2024/02/14 07:19:56;;;;;;;26.83;10.80;;;12.30;99.90;;;;;;7285321;19;20209;-80
2024/02/14 07:22:21;;;;;;;22.00;10.20;;;12.20;99.90;;;;;;7286877;19;20269;-80
2024/02/14 07:24:48;;;;;;;23.67;10.27;;;12.20;99.90;;;;;;7287155;19;20194;-79
2024/02/14 07:27:15;;;;;;;24.40;10.53;;;12.20;99.90;;;;;;7299992;19;20188;-80
2024/02/14 07:29:41;;;;;;;23.70;9.87;;;12.30;99.90;;;;;;7308415;19;20252;-81
2024/02/14 07:32:06;;;;;;;27.27;11.27;;;12.30;99.90;;;;;;7286090;19;20202;-82
2024/02/14 07:34:32;;;;;;;22.60;9.83;;;12.30;99.90;;;;;;7285892;19;20185;-82
2024/02/14 07:36:58;;;;;;;21.13;9.73;;;12.40;99.90;;;;;;7287933;19;20193;-82
2024/02/14 07:39:24;;;;;;;24.63;10.30;;;12.30;99.90;;;;;;7284824;19;20565;-82
2024/02/14 07:41:50;;;;;;;20.17;9.90;;;12.40;99.90;;;;;;7286892;19;20196;-82
2024/02/14 07:44:16;;;;;;;23.27;9.73;;;12.30;99.90;;;;;;7287900;19;20555;-82
2024/02/14 07:46:42;;;;;;;22.83;9.93;;;12.30;99.90;;;;;;7309638;19;20189;-82
2024/02/14 07:49:09;;;;;;;21.17;9.67;;;12.50;99.90;;;;;;7288347;19;20189;-83
2024/02/14 07:51:37;;;;;;;24.97;9.60;;;12.50;99.90;;;;;;7286338;19;20679;-81
2024/02/14 07:54:06;;;;;;;20.20;8.97;;;12.50;99.90;;;;;;7287075;19;20320;-81
2024/02/14 07:56:32;;;;;;;21.33;8.83;;;12.40;99.90;;;;;;7284312;19;20197;-82
2024/02/14 07:58:58;;;;;;;19.63;9.47;;;12.50;99.90;;;;;;7286687;19;20211;-82
2024/02/14 08:01:24;;;;;;;21.40;8.87;;;12.50;99.90;;;;;;7286381;19;20226;-81
2024/02/14 08:03:49;;;;;;;20.77;9.27;;;12.50;99.90;;;;;;7284700;19;20200;-82
2024/02/14 08:06:15;;;;;;;20.70;8.87;;;12.50;99.90;;;;;;7286356;19;20210;-82
2024/02/14 08:08:41;;;;;;;20.93;8.57;;;12.40;99.90;;;;;;7310002;19;20268;-82
2024/02/14 08:11:07;;;;;;;20.87;9.07;;;12.40;99.90;;;;;;7286917;19;20249;-82
2024/02/14 08:13:34;;;;;;;19.27;9.17;;;12.50;99.90;;;;;;7285260;19;20615;-82
2024/02/14 08:16:00;;;;;;;19.67;9.47;;;12.50;99.90;;;;;;7286177;19;20184;-82
2024/02/14 08:18:27;;;;;;;24.07;10.20;;;12.60;99.90;;;;;;7282444;19;20213;-82
2024/02/14 08:20:53;;;;;;;20.63;9.63;;;12.60;99.90;;;;;;7284410;19;20264;-82
2024/02/14 08:23:19;;;;;;;19.50;9.40;;;12.60;99.90;;;;;;7286029;19;20177;-82
2024/02/14 08:25:46;;;;;;;21.73;10.00;;;12.60;99.90;;;;;;7285333;19;20254;-81
2024/02/14 08:28:12;;;;;;;22.80;9.60;;;12.70;99.90;;;;;;7307361;19;20197;-82
2024/02/14 08:30:38;;;;;;;21.57;10.40;;;12.60;99.90;;;;;;7284640;19;20590;-82
2024/02/14 08:33:04;;;;;;;22.00;10.10;;;12.60;99.90;;;;;;7284063;19;20206;-82
2024/02/14 08:35:29;;;;;;;18.20;9.43;;;12.70;99.90;;;;;;7286384;19;20193;-82
2024/02/14 08:37:55;;;;;;;20.83;9.80;;;12.70;99.90;;;;;;7283967;19;20193;-82
2024/02/14 08:40:21;;;;;;;19.43;9.73;;;12.70;99.90;;;;;;7285325;19;20185;-82
2024/02/14 08:42:47;;;;;;;20.80;9.70;;;12.70;99.90;;;;;;7286085;19;20193;-82
2024/02/14 08:45:13;;;;;;;21.60;10.70;;;12.70;99.90;;;;;;7307695;19;20671;-82
2024/02/14 08:47:39;;;;;;;21.20;10.93;;;12.70;99.90;;;;;;7287748;19;20197;-82
2024/02/14 08:50:05;;;;;;;22.10;11.40;;;12.70;99.90;;;;;;7284739;19;20188;-81
2024/02/14 08:52:32;;;;;;;18.33;10.77;;;12.70;99.90;;;;;;7285179;19;20189;-81
2024/02/14 08:54:58;;;;;;;20.73;10.60;;;12.80;99.90;;;;;;7284443;19;20194;-81
2024/02/14 08:57:23;;;;;;;23.07;10.60;;;12.90;99.90;;;;;;7285389;19;20208;-82
2024/02/14 08:59:49;;;;;;;20.60;10.07;;;12.90;99.90;;;;;;7284763;19;20201;-81
2024/02/14 09:02:16;;;;;;;20.30;10.40;;;12.90;99.90;;;;;;7287485;19;20695;-81
2024/02/14 09:04:42;;;;;;;20.80;10.07;;;12.90;99.90;;;;;;7307435;19;20208;-82
2024/02/14 09:07:08;;;;;;;21.17;10.30;;;12.80;99.90;;;;;;7285392;19;20212;-82
2024/02/14 09:09:34;;;;;;;20.03;10.20;;;12.80;99.90;;;;;;7284850;19;20202;-82
2024/02/14 09:12:02;;;;;;;21.20;10.57;;;12.90;99.90;;;;;;7283939;19;20207;-82
2024/02/14 09:14:31;;;;;;;18.93;10.27;;;12.90;99.90;;;;;;7283784;19;20773;-82
2024/02/14 09:16:57;;;;;;;18.67;10.30;;;13.00;99.90;;;;;;7283906;19;20196;-81
2024/02/14 09:19:23;;;;;;;17.80;9.77;;;13.00;99.90;;;;;;7282603;19;20294;-82
2024/02/14 09:21:49;;;;;;;17.83;9.50;;;13.00;99.90;;;;;;7284743;19;20190;-81
2024/02/14 09:24:15;;;;;;;19.07;9.50;;;12.90;99.90;;;;;;7293007;19;20695;-81
2024/02/14 09:26:42;;;;;;;16.73;8.90;;;12.90;99.90;;;;;;7303858;19;20202;-82
2024/02/14 09:29:09;;;;;;;17.50;9.27;;;12.90;99.90;;;;;;7284716;19;20198;-81
2024/02/14 09:31:35;;;;;;;15.10;9.07;;;13.00;99.90;;;;;;7286088;19;20184;-82
2024/02/14 09:34:00;;;;;;;16.43;9.10;;;12.90;99.90;;;;;;7293356;19;20200;-82
2024/02/14 09:36:26;;;;;;;19.60;9.97;;;12.90;99.90;;;;;;7296247;19;20192;-82
2024/02/14 09:38:53;;;;;;;16.97;9.30;;;12.90;99.90;;;;;;7297127;19;20204;-82
2024/02/14 09:41:28;;;;;;;18.70;9.80;;;12.90;99.90;;;;;;7299745;19;20218;-81
2024/02/14 09:43:54;;;;;;;16.73;9.40;;;12.90;99.90;;;;;;7287329;19;20210;-82
2024/02/14 09:46:24;;;;;;;19.03;9.53;;;12.90;99.90;;;;;;7283835;19;20189;-82
2024/02/14 09:48:52;;;;;;;16.37;9.80;;;12.90;99.90;;;;;;7283527;19;20193;-82
2024/02/14 09:51:17;;;;;;;18.60;10.83;;;12.90;99.90;;;;;;7283767;19;20639;-81
2024/02/14 09:53:44;;;;;;;17.60;10.73;;;12.90;99.90;;;;;;7304637;19;20293;-82
2024/02/14 09:56:11;;;;;;;19.23;11.03;;;12.80;99.90;;;;;;7283432;19;20185;-82
2024/02/14 09:58:37;;;;;;;15.23;9.57;;;12.90;99.90;;;;;;7282777;19;20202;-82
2024/02/14 10:01:03;;;;;;;15.73;9.70;;;12.90;99.90;;;;;;7282900;19;20220;-82
2024/02/14 10:03:28;;;;;;;17.43;9.57;;;12.90;99.90;;;;;;7285239;19;20254;-82
2024/02/14 10:05:54;;;;;;;15.10;9.83;;;13.00;99.90;;;;;;7282139;19;20207;-83
2024/02/14 10:08:23;;;;;;;15.33;10.20;;;13.00;99.90;;;;;;7283721;19;20197;-81
2024/02/14 10:10:50;;;;;;;16.93;9.70;;;13.00;99.90;;;;;;7281032;19;20181;-81
2024/02/14 10:13:16;;;;;;;16.87;10.00;;;12.90;99.90;;;;;;7284848;19;20198;-80
2024/02/14 10:15:42;;;;;;;15.97;10.20;;;12.90;99.90;;;;;;7305730;19;20197;-82
2024/02/14 10:18:09;;;;;;;14.47;9.00;;;12.90;99.90;;;;;;7282683;19;20710;-82
2024/02/14 10:20:40;;;;;;;15.73;9.47;;;12.90;99.90;;;;;;7280954;19;20186;-82
2024/02/14 10:23:08;;;;;;;15.43;8.57;;;12.90;99.90;;;;;;7281954;19;20557;-82
2024/02/14 10:25:38;;;;;;;13.33;8.13;;;12.80;99.90;;;;;;7280208;19;20802;-82
2024/02/14 10:28:08;;;;;;;13.90;7.60;;;12.90;99.90;;;;;;7279896;19;21322;-82
2024/02/14 10:30:40;;;;;;;13.13;7.33;;;12.90;99.90;;;;;;7281834;19;20313;-82
2024/02/14 10:33:07;;;;;;;13.63;7.27;;;13.00;99.90;;;;;;7280676;19;20341;-82
2024/02/14 10:35:36;;;;;;;12.83;7.53;;;12.90;99.90;;;;;;7282726;19;20202;-81
2024/02/14 10:38:03;;;;;;;12.40;6.07;;;12.90;99.90;;;;;;7280200;19;20197;-81
2024/02/14 10:40:32;;;;;;;11.60;5.80;;;12.90;99.90;;;;;;7282113;19;20223;-82
2024/02/14 10:42:58;;;;;;;10.57;5.87;;;13.00;99.90;;;;;;7286711;19;20217;-83
2024/02/14 10:45:26;;;;;;;9.33;4.83;;;13.00;99.90;;;;;;7288573;19;20283;-82
2024/02/14 10:47:53;;;;;;;9.67;4.87;;;13.00;99.90;;;;;;7286216;19;20190;-82
2024/02/14 10:50:22;;;;;;;8.83;4.27;;;13.10;99.90;;;;;;7287342;19;20226;-82
2024/02/14 10:52:49;;;;;;;9.60;4.47;;;13.10;99.90;;;;;;7287019;19;20216;-81
2024/02/14 10:55:16;;;;;;;10.10;4.90;;;13.10;99.90;;;;;;7303113;19;20194;-81
2024/02/14 10:57:45;;;;;;;9.27;4.93;;;13.10;99.90;;;;;;7310385;19;20193;-82
2024/02/14 11:00:14;;;;;;;10.00;5.10;;;13.10;99.90;;;;;;7288240;19;20202;-82
2024/02/14 11:02:41;;;;;;;10.07;5.23;;;13.00;99.90;;;;;;7288964;19;20260;-83
2024/02/14 11:05:14;;;;;;;12.33;5.10;;;13.00;99.90;;;;;;7287127;19;20609;-82
2024/02/14 11:07:45;;;;;;;10.50;5.13;;;13.10;99.90;;;;;;7287742;19;20195;-83
2024/02/14 11:10:14;;;;;;;16.07;10.03;;;13.10;99.90;;;;;;7290029;19;20729;-81
2024/02/14 11:12:40;;;;;;;14.77;6.40;;;13.20;99.90;;;;;;7288139;19;20265;-82
2024/02/14 11:15:25;;;;;;;12.60;5.80;;;13.20;99.90;;;;;;7287879;19;20194;-83
2024/02/14 11:17:53;;;;;;;13.73;6.03;;;13.20;99.90;;;;;;7182274;19;2004567;-82
2024/02/14 11:20:21;;;;;;;15.50;6.07;;;13.20;99.90;;;;;;7286642;19;20999;-81
2024/02/14 11:22:53;;;;;;;16.07;6.60;;;13.40;99.90;;;;;;7287465;19;20194;-82
2024/02/14 11:25:23;;;;;;;14.17;6.17;;;13.40;99.90;;;;;;7285008;19;20195;-83
2024/02/14 11:27:49;;;;;;;16.97;7.57;;;13.60;99.90;;;;;;7286392;19;20224;-83
2024/02/14 11:30:15;;;;;;;15.37;6.60;;;13.50;99.90;;;;;;7302110;19;20189;-81
2024/02/14 11:32:42;;;;;;;19.77;8.03;;;13.50;99.90;;;;;;7301101;19;20187;-82
2024/02/14 11:35:11;;;;;;;16.53;6.90;;;13.40;99.90;;;;;;7287007;19;20231;-82
2024/02/14 11:37:37;;;;;;;15.87;6.60;;;13.50;99.90;;;;;;7286853;19;20183;-82
2024/02/14 11:40:03;;;;;;;20.60;7.13;;;13.50;99.90;;;;;;7286093;19;20215;-82
2024/02/14 11:42:30;;;;;;;18.43;7.10;;;13.50;99.90;;;;;;7288208;19;20199;-81
2024/02/14 11:44:56;;;;;;;14.20;6.33;;;13.60;99.90;;;;;;7287110;19;20179;-82
2024/02/14 11:47:23;;;;;;;14.17;6.97;;;13.60;99.90;;;;;;7284790;19;20198;-81
2024/02/14 11:49:48;;;;;;;14.03;6.03;;;13.60;99.90;;;;;;7286829;19;20211;-81
2024/02/14 11:52:14;;;;;;;13.37;6.30;;;13.60;99.90;;;;;;7304900;19;20613;-81
2024/02/14 11:54:45;;;;;;;16.07;6.73;;;13.50;99.90;;;;;;7295072;19;20190;-82
2024/02/14 11:57:11;;;;;;;14.80;7.03;;;13.50;99.90;;;;;;7288130;19;20560;-82
2024/02/14 11:59:37;;;;;;;17.43;7.60;;;13.60;99.90;;;;;;7287059;19;20314;-82
2024/02/14 12:02:04;;;;;;;18.87;8.27;;;13.70;99.90;;;;;;7286806;19;20266;-83
2024/02/14 12:04:31;;;;;;;18.27;7.47;;;13.80;99.90;;;;;;7286879;19;20187;-83
2024/02/14 12:06:57;;;;;;;18.63;7.90;;;13.80;99.90;;;;;;7285522;19;20184;-82
2024/02/14 12:09:25;;;;;;;19.67;8.23;;;13.80;99.90;;;;;;7286230;19;20266;-82
2024/02/14 12:11:51;;;;;;;18.70;8.23;;;13.80;99.90;;;;;;7286260;19;20262;-82
2024/02/14 12:14:17;;;;;;;17.87;7.37;;;13.80;99.90;;;;;;7284852;19;20206;-81
2024/02/14 12:16:43;;;;;;;18.03;8.00;;;13.80;99.90;;;;;;7308173;19;20198;-82
2024/02/14 12:19:15;;;;;;;17.00;7.07;;;13.90;99.90;;;;;;7286453;19;20184;-81
2024/02/14 12:21:43;;;;;;;17.10;6.13;;;14.00;99.90;;;;;;7289061;19;20605;-82
2024/02/14 12:24:09;;;;;;;13.53;5.93;;;13.90;99.90;;;;;;7287992;19;20183;-82
2024/02/14 12:26:36;;;;;;;15.57;5.90;;;13.90;99.90;;;;;;7283895;19;20195;-82
2024/02/14 12:29:06;;;;;;;11.73;5.40;;;13.90;99.90;;;;;;7285708;19;20196;-83